Aérodrome :
LOGIN :

S'inscrire | Disclaimer

   EN    FR    IT 

 










Légende :    VFR   VFR Marginal   IFR   IFR Intensif   IFR Très Intensif
Visi : 
Plafond : 
>= 8 km
>= 3000ft
5 à 8 km
1000 à 3000 ft
1500m à 5 km
500 à 1000 ft
800 à 1500m
200 à 500 ft
< 800m
< 200 ft
Symboles :   Orages  Brouillard  Fortes neiges  Fortes précipitations  Vent > 20 kt
SIGMETs :   Divers  Orages  Givrage  Turbulence  Onde Orograph.  Cendres Volcan.







- Altitude de l'aérodrome : 436 ft
- Code IATA : ANG
- Voir les cartes d'approche


LFBU - Angoulême Brie Champniers

DERNIER METAR :
  • 231630Z AUTO 23003KT 190V260 9999 OVC042 16/10 Q1026 NOSIG

METARs EXPIRÉS :
  • 231600Z AUTO 22004KT 190V250 9999 BKN045 BKN052 OVC072 16/10 Q1026 NOSIG
  • 231530Z AUTO 22005KT 190V250 9999 FEW046 OVC060 17/10 Q1026 NOSIG
  • 231500Z AUTO 24007KT 190V260 9999 FEW029 BKN047 OVC066 17/10 Q1026 NOSIG
  • 231430Z AUTO 23005KT 170V270 9999 FEW030 BKN040 OVC048 17/10 Q1026 NOSIG
  • 231400Z AUTO 24005KT 200V270 9999 FEW029 OVC048 17/10 Q1026 NOSIG

TAF TAF LFBU
Valide du 23 à 12h jusqu'au 24 à 12h UTC


231100Z 2312/2412 VRB03KT 9999 BKN025
BECMG 2317/2319 CAVOK
PROB30
TEMPO 2400/2408 3000 BR
Pas de NOTAMs connus pour ce terrain.



MET'MAP, la Météo Aéronautique d'un coup d'oeil ! - Copyright ORBIFLY Décembre 2007 - Disclaimer

ORBIFLY MET'MAP TEAM :

Programmation & Développement : Alexandra Zaïnal
Conception & Développement : Baudouin d'Aumeries
Co-Programmation & Développement : Marc-Olivier Méhu
Soutien technique & logistique : Manuel Goepfert

Contact : metmap@orbifly.com




SOURCES & CREDITS :

   NOAA